createdAt,value
2023-11-09T00:00:33.825Z,60.20
2023-11-09T00:03:01.020Z,60.20
2023-11-09T00:05:28.184Z,60.40
2023-11-09T00:07:55.309Z,60.50
2023-11-09T00:10:22.829Z,60.60
2023-11-09T00:12:52.388Z,60.80
2023-11-09T00:15:21.688Z,61.10
2023-11-09T00:17:49.724Z,61.40
2023-11-09T00:20:20.549Z,61.60
2023-11-09T00:22:48.409Z,61.70
2023-11-09T00:25:16.115Z,62.10
2023-11-09T00:27:43.150Z,62.20
2023-11-09T00:30:10.514Z,62.60
2023-11-09T00:32:40.150Z,62.70
2023-11-09T00:35:09.746Z,63.10
2023-11-09T00:37:38.788Z,63.30
2023-11-09T00:40:12.791Z,63.40
2023-11-09T00:42:40.433Z,63.70
2023-11-09T00:45:08.533Z,63.80
2023-11-09T00:47:36.071Z,64.10
2023-11-09T00:50:03.229Z,64.00
2023-11-09T00:52:30.907Z,64.10
2023-11-09T00:54:58.204Z,64.30
2023-11-09T00:57:26.865Z,64.60
2023-11-09T00:59:53.901Z,64.90
2023-11-09T01:02:20.951Z,65.20
2023-11-09T01:04:48.011Z,65.30
2023-11-09T01:07:15.301Z,65.40
2023-11-09T01:09:42.385Z,65.60
2023-11-09T01:12:09.870Z,65.70
2023-11-09T01:14:36.821Z,65.80
2023-11-09T01:17:04.354Z,65.90
2023-11-09T01:19:31.992Z,66.10
2023-11-09T01:22:00.772Z,66.30
2023-11-09T01:24:27.952Z,66.70
2023-11-09T01:26:55.410Z,66.90
2023-11-09T01:29:25.393Z,67.10
2023-11-09T01:31:52.398Z,67.40
2023-11-09T01:34:19.771Z,67.60
2023-11-09T01:36:46.978Z,67.80
2023-11-09T01:39:14.230Z,68.00
2023-11-09T01:41:43.857Z,68.10
2023-11-09T01:44:11.209Z,68.20
2023-11-09T01:46:41.422Z,68.50
2023-11-09T01:49:11.743Z,68.50
2023-11-09T01:51:40.285Z,68.90
2023-11-09T01:54:08.325Z,69.30
2023-11-09T01:56:36.858Z,69.40
2023-11-09T01:59:05.628Z,69.60
2023-11-09T02:01:35.306Z,69.70
2023-11-09T02:04:05.345Z,69.90
2023-11-09T02:06:34.283Z,70.00
2023-11-09T02:09:02.272Z,70.20
2023-11-09T02:11:29.410Z,70.30
2023-11-09T02:13:56.403Z,70.50
2023-11-09T02:16:23.604Z,70.60
2023-11-09T02:18:51.099Z,70.80
2023-11-09T02:21:19.372Z,70.90
2023-11-09T02:23:49.941Z,71.00
2023-11-09T02:26:18.086Z,71.20
2023-11-09T02:28:50.556Z,71.30
2023-11-09T02:31:19.181Z,71.40
2023-11-09T02:33:46.198Z,71.50
2023-11-09T02:36:13.970Z,71.60
2023-11-09T02:38:41.385Z,71.70
2023-11-09T02:41:09.749Z,71.90
2023-11-09T02:43:41.970Z,71.90
2023-11-09T02:46:11.906Z,71.90
2023-11-09T02:48:40.147Z,72.00
2023-11-09T02:51:08.617Z,72.00
2023-11-09T02:53:35.922Z,72.10
2023-11-09T02:56:03.944Z,72.20
2023-11-09T02:58:31.073Z,72.40
2023-11-09T03:00:59.248Z,72.50
2023-11-09T03:04:38.209Z,72.60
2023-11-09T03:07:08.766Z,72.60
2023-11-09T03:09:36.699Z,72.40
2023-11-09T03:12:06.317Z,72.50
2023-11-09T03:14:35.145Z,72.50
2023-11-09T03:17:10.544Z,72.60
2023-11-09T03:19:39.333Z,72.70
2023-11-09T03:22:11.774Z,72.70
2023-11-09T03:24:41.715Z,72.80
2023-11-09T03:27:11.160Z,72.80
2023-11-09T03:29:39.295Z,72.90
2023-11-09T03:32:08.568Z,73.00
2023-11-09T03:34:35.788Z,73.10
2023-11-09T03:37:02.861Z,73.10
2023-11-09T03:39:29.879Z,73.20
2023-11-09T03:41:56.859Z,73.20
2023-11-09T03:44:23.883Z,73.20
2023-11-09T03:46:52.436Z,73.10
2023-11-09T03:49:20.960Z,73.30
2023-11-09T03:51:47.931Z,73.30
2023-11-09T03:54:14.858Z,73.40
2023-11-09T03:56:41.809Z,73.50
2023-11-09T03:59:09.346Z,73.60
2023-11-09T04:01:36.305Z,73.70
2023-11-09T04:04:05.703Z,73.70
2023-11-09T04:06:33.554Z,73.80
2023-11-09T04:09:00.526Z,73.80
2023-11-09T04:11:27.673Z,73.80
2023-11-09T04:13:55.251Z,73.90
2023-11-09T04:16:23.237Z,73.90
2023-11-09T04:18:50.248Z,73.90
2023-11-09T04:21:17.250Z,73.90
2023-11-09T04:23:44.604Z,73.80
2023-11-09T04:26:14.012Z,73.20
2023-11-09T04:28:42.110Z,73.00
2023-11-09T04:31:10.726Z,72.90
2023-11-09T04:33:38.907Z,72.60
2023-11-09T04:36:10.254Z,72.50
2023-11-09T04:38:39.283Z,72.50
2023-11-09T04:41:17.025Z,72.40
2023-11-09T04:43:44.425Z,72.50
2023-11-09T04:46:12.743Z,72.40
2023-11-09T04:48:45.883Z,72.60
2023-11-09T04:51:21.744Z,72.80
2023-11-09T04:53:52.389Z,72.90
2023-11-09T04:56:39.087Z,73.00
2023-11-09T04:59:28.036Z,73.00
2023-11-09T05:02:17.629Z,73.20
2023-11-09T05:05:04.125Z,73.20
2023-11-09T05:07:32.126Z,73.30
2023-11-09T05:09:59.651Z,73.30
2023-11-09T05:12:27.474Z,73.40
2023-11-09T05:14:54.885Z,73.20
2023-11-09T05:17:21.950Z,73.10
2023-11-09T05:19:49.358Z,73.10
2023-11-09T05:22:17.456Z,73.20
2023-11-09T05:24:45.146Z,73.30
2023-11-09T05:27:12.761Z,73.40
2023-11-09T05:29:40.052Z,73.40
2023-11-09T05:32:08.000Z,73.60
2023-11-09T05:34:36.111Z,73.60
2023-11-09T05:37:04.397Z,73.60
2023-11-09T05:39:32.438Z,73.50
2023-11-09T05:42:00.885Z,73.50
2023-11-09T05:44:28.986Z,73.40
2023-11-09T05:46:56.466Z,73.40
2023-11-09T05:49:24.407Z,73.20
2023-11-09T05:51:52.450Z,73.00
2023-11-09T05:54:19.840Z,72.90
2023-11-09T05:56:47.451Z,73.00
2023-11-09T05:59:15.780Z,72.90
2023-11-09T06:01:44.277Z,72.70
2023-11-09T06:04:11.648Z,72.80
2023-11-09T06:06:39.494Z,72.70
2023-11-09T06:09:08.065Z,72.10
2023-11-09T06:11:36.576Z,71.30
2023-11-09T06:14:05.793Z,70.80
2023-11-09T06:16:34.562Z,70.00
2023-11-09T06:19:03.720Z,69.00
2023-11-09T06:21:31.127Z,69.00
2023-11-09T06:23:58.302Z,69.70
2023-11-09T06:26:25.948Z,70.20
2023-11-09T06:28:54.422Z,71.00
2023-11-09T06:31:23.610Z,71.50
2023-11-09T06:33:55.051Z,71.60
2023-11-09T06:36:23.384Z,72.40
2023-11-09T06:38:50.562Z,72.60
2023-11-09T06:41:17.612Z,72.50
2023-11-09T06:43:44.990Z,72.40
2023-11-09T06:46:12.519Z,72.00
2023-11-09T06:48:39.833Z,72.00
2023-11-09T06:51:06.939Z,71.90
2023-11-09T06:53:33.936Z,71.60
2023-11-09T06:56:00.946Z,71.70
2023-11-09T06:58:28.127Z,71.50
2023-11-09T07:00:55.688Z,71.20
2023-11-09T07:03:23.949Z,70.80
2023-11-09T07:05:51.771Z,70.10
2023-11-09T07:08:19.048Z,69.50
2023-11-09T07:10:46.140Z,68.80
2023-11-09T07:13:13.422Z,68.00
2023-11-09T07:15:41.217Z,67.20
2023-11-09T07:18:09.282Z,66.80
2023-11-09T07:20:37.190Z,66.70
2023-11-09T07:23:08.820Z,66.40
2023-11-09T07:25:39.047Z,66.40
2023-11-09T07:28:08.739Z,65.80
2023-11-09T07:30:36.556Z,65.10
2023-11-09T07:33:04.835Z,64.70
2023-11-09T07:35:32.187Z,64.40
2023-11-09T07:37:59.863Z,64.40
2023-11-09T07:40:29.781Z,64.40
2023-11-09T07:43:00.262Z,64.40
2023-11-09T07:45:27.851Z,64.70
2023-11-09T07:47:54.847Z,65.60
2023-11-09T07:50:22.912Z,66.40
2023-11-09T07:52:50.169Z,66.80
2023-11-09T07:55:18.741Z,67.00
2023-11-09T07:57:47.080Z,66.80
2023-11-09T08:00:15.880Z,66.60
2023-11-09T08:02:43.034Z,66.30
2023-11-09T08:05:14.659Z,66.20
2023-11-09T08:07:43.016Z,65.90
2023-11-09T08:10:11.165Z,65.90
2023-11-09T08:12:42.461Z,65.70
2023-11-09T08:15:15.730Z,65.70
2023-11-09T08:17:43.891Z,65.60
2023-11-09T08:20:15.873Z,65.40
2023-11-09T08:22:46.270Z,65.40
2023-11-09T08:25:16.145Z,65.20
2023-11-09T08:27:43.831Z,64.90
2023-11-09T08:30:12.312Z,65.00
2023-11-09T08:32:40.394Z,65.70
2023-11-09T08:35:11.889Z,66.20
2023-11-09T08:37:41.660Z,66.30
2023-11-09T08:40:18.218Z,66.40
2023-11-09T08:42:50.024Z,66.50
2023-11-09T08:45:23.047Z,66.40
2023-11-09T08:47:51.734Z,66.40
2023-11-09T08:50:19.595Z,66.30
2023-11-09T08:52:47.373Z,66.00
2023-11-09T08:55:16.068Z,65.70
2023-11-09T08:57:43.562Z,65.20
2023-11-09T09:00:13.348Z,64.70
2023-11-09T09:02:46.695Z,64.40
2023-11-09T09:05:16.863Z,64.10
2023-11-09T09:07:47.107Z,63.90
2023-11-09T09:10:17.123Z,63.60
2023-11-09T09:12:45.634Z,63.20
2023-11-09T09:15:20.716Z,62.60
2023-11-09T09:17:49.540Z,62.30
2023-11-09T09:20:21.569Z,62.00
2023-11-09T09:22:55.853Z,61.80
2023-11-09T09:25:27.108Z,61.40
2023-11-09T09:27:54.846Z,61.00
2023-11-09T09:30:24.067Z,60.60
2023-11-09T09:32:53.132Z,60.20
2023-11-09T09:35:32.706Z,59.40
2023-11-09T09:38:06.340Z,59.20
2023-11-09T09:40:41.089Z,59.20
2023-11-09T09:43:16.313Z,58.70
2023-11-09T09:45:44.891Z,58.70
2023-11-09T09:48:13.213Z,58.70
2023-11-09T09:50:40.634Z,58.90
2023-11-09T09:53:12.799Z,59.10
2023-11-09T09:55:42.262Z,59.40
2023-11-09T09:58:12.564Z,59.90
2023-11-09T10:00:42.557Z,60.40
2023-11-09T10:03:09.681Z,61.20
2023-11-09T10:05:37.997Z,60.60
2023-11-09T10:08:05.540Z,60.20
2023-11-09T10:10:41.320Z,59.90
2023-11-09T10:13:15.290Z,59.50
2023-11-09T10:15:45.137Z,59.40
2023-11-09T10:18:14.395Z,59.40
2023-11-09T10:20:43.092Z,59.40
2023-11-09T10:23:15.942Z,59.30
2023-11-09T10:25:43.434Z,59.10
2023-11-09T10:28:14.990Z,59.00
2023-11-09T10:30:46.060Z,58.70
2023-11-09T10:33:18.556Z,58.70
2023-11-09T10:35:48.208Z,58.80
2023-11-09T10:38:23.185Z,58.80
2023-11-09T10:41:14.405Z,58.90
2023-11-09T10:43:39.486Z,59.20
2023-11-09T10:46:10.705Z,59.80
2023-11-09T10:48:46.118Z,59.90
2023-11-09T10:51:16.733Z,60.20
2023-11-09T10:53:48.512Z,60.60
2023-11-09T10:56:18.367Z,60.90
2023-11-09T10:58:46.808Z,61.50
2023-11-09T11:01:25.380Z,62.40
2023-11-09T11:03:59.434Z,63.30
2023-11-09T11:06:34.725Z,64.20
2023-11-09T11:09:10.052Z,65.40
2023-11-09T11:11:41.625Z,65.90
2023-11-09T11:14:13.060Z,66.40
2023-11-09T11:17:01.611Z,66.90
2023-11-09T11:19:47.239Z,67.30
2023-11-09T11:22:46.091Z,67.30
2023-11-09T11:25:37.376Z,67.80
2023-11-09T11:28:12.498Z,68.10
2023-11-09T11:30:41.344Z,68.40
2023-11-09T11:33:14.525Z,68.70
2023-11-09T11:35:44.109Z,69.20
2023-11-09T11:38:18.108Z,69.40
2023-11-09T11:40:52.323Z,69.90
2023-11-09T11:43:21.824Z,70.50
2023-11-09T11:45:50.745Z,71.30
2023-11-09T11:48:28.926Z,71.60
2023-11-09T11:50:56.958Z,71.90
2023-11-09T11:53:31.892Z,72.20
2023-11-09T11:56:14.864Z,72.10
2023-11-09T11:58:50.109Z,71.80
2023-11-09T12:01:32.492Z,71.50
2023-11-09T12:04:05.378Z,71.30
2023-11-09T12:06:43.856Z,70.70
2023-11-09T12:09:13.025Z,70.10
2023-11-09T12:11:49.472Z,69.40
2023-11-09T12:14:20.867Z,69.20
2023-11-09T12:16:48.691Z,68.50
2023-11-09T12:19:17.900Z,68.20
2023-11-09T12:21:47.368Z,67.70
2023-11-09T12:24:24.516Z,67.00
2023-11-09T12:27:21.917Z,66.70
2023-11-09T12:29:49.081Z,66.20
2023-11-09T12:32:17.100Z,66.00
2023-11-09T12:34:44.977Z,65.50
2023-11-09T12:37:15.739Z,65.50
2023-11-09T12:39:44.813Z,65.30
2023-11-09T12:42:13.141Z,65.20
2023-11-09T12:44:44.422Z,65.20
2023-11-09T12:47:13.177Z,65.30
2023-11-09T12:49:46.150Z,65.30
2023-11-09T12:52:13.377Z,66.30
2023-11-09T12:54:41.607Z,67.90
2023-11-09T12:57:09.457Z,68.80
2023-11-09T12:59:43.537Z,69.60
2023-11-09T13:02:20.228Z,70.10
2023-11-09T13:04:53.925Z,70.50
2023-11-09T13:07:26.169Z,70.70
2023-11-09T13:10:13.117Z,70.60
2023-11-09T13:12:46.148Z,70.70
2023-11-09T13:15:15.428Z,70.90
2023-11-09T13:17:53.991Z,71.00
2023-11-09T13:20:30.208Z,71.10
2023-11-09T13:23:06.573Z,71.40
2023-11-09T13:25:46.845Z,72.30
2023-11-09T13:28:16.857Z,73.20
2023-11-09T13:31:00.950Z,74.10
2023-11-09T13:33:36.693Z,74.80
2023-11-09T13:36:06.497Z,75.60
2023-11-09T13:38:43.393Z,76.40
2023-11-09T13:41:18.791Z,77.00
2023-11-09T13:44:00.412Z,77.40
2023-11-09T13:46:29.398Z,78.10
2023-11-09T13:49:11.930Z,78.40
2023-11-09T13:51:40.342Z,78.70
2023-11-09T13:54:25.761Z,79.10
2023-11-09T13:56:58.789Z,79.40
2023-11-09T13:59:31.176Z,79.70
2023-11-09T14:01:59.546Z,79.70
2023-11-09T14:04:31.285Z,79.90
2023-11-09T14:07:03.207Z,80.00
2023-11-09T14:09:36.403Z,80.10
2023-11-09T14:12:10.513Z,80.20
2023-11-09T14:14:41.776Z,80.40
2023-11-09T14:17:18.940Z,80.50
2023-11-09T14:19:54.741Z,80.40
2023-11-09T14:22:23.837Z,80.50
2023-11-09T14:24:55.180Z,80.50
2023-11-09T14:27:24.742Z,80.50
2023-11-09T14:29:56.425Z,80.60
2023-11-09T14:32:27.793Z,80.50
2023-11-09T14:34:55.534Z,80.10
2023-11-09T14:37:23.761Z,79.80
2023-11-09T14:40:15.175Z,79.40
2023-11-09T14:42:42.461Z,79.10
2023-11-09T14:45:10.817Z,78.60
2023-11-09T14:47:43.347Z,78.20
2023-11-09T14:50:20.763Z,77.70
2023-11-09T14:52:57.237Z,77.40
2023-11-09T14:55:28.348Z,77.00
2023-11-09T14:57:55.484Z,76.70
2023-11-09T15:00:24.618Z,76.90
2023-11-09T15:02:51.892Z,75.70
2023-11-09T15:05:25.441Z,75.40
2023-11-09T15:07:54.283Z,75.20
2023-11-09T15:10:26.557Z,74.80
2023-11-09T15:12:55.012Z,74.60
2023-11-09T15:15:24.732Z,74.30
2023-11-09T15:17:52.056Z,74.00
2023-11-09T15:20:25.620Z,73.90
2023-11-09T15:22:58.105Z,73.90
2023-11-09T15:25:25.988Z,73.80
2023-11-09T15:27:54.754Z,73.90
2023-11-09T15:30:26.324Z,73.80
2023-11-09T15:32:55.133Z,74.00
2023-11-09T15:35:22.697Z,74.40
2023-11-09T15:37:55.330Z,74.70
2023-11-09T15:41:09.286Z,75.00
2023-11-09T15:43:48.219Z,75.00
2023-11-09T15:46:36.671Z,76.10
2023-11-09T15:49:09.072Z,78.20
2023-11-09T15:51:36.434Z,79.50
2023-11-09T15:54:03.588Z,80.10
2023-11-09T15:56:30.853Z,81.00
2023-11-09T15:58:58.439Z,82.10
2023-11-09T16:01:25.577Z,82.80
2023-11-09T16:03:55.044Z,83.10
2023-11-09T16:06:23.216Z,83.50
2023-11-09T16:08:53.840Z,83.70
2023-11-09T16:11:22.887Z,84.50
2023-11-09T16:13:51.304Z,85.00
2023-11-09T16:16:19.069Z,85.40
2023-11-09T16:18:48.088Z,86.00
2023-11-09T16:21:15.773Z,86.40
2023-11-09T16:23:42.981Z,86.90
2023-11-09T16:26:09.985Z,87.00
2023-11-09T16:28:43.362Z,87.30
2023-11-09T16:31:10.274Z,87.30
2023-11-09T16:33:37.891Z,87.30
2023-11-09T16:36:06.131Z,87.50
2023-11-09T16:38:33.358Z,87.80
2023-11-09T16:41:01.253Z,87.80
2023-11-09T16:43:29.232Z,87.50
2023-11-09T16:45:56.356Z,88.40
2023-11-09T16:48:24.738Z,88.20
2023-11-09T16:50:51.715Z,88.50
2023-11-09T16:53:20.603Z,88.60
2023-11-09T16:55:47.746Z,88.60
2023-11-09T16:58:15.819Z,88.20
2023-11-09T17:00:43.134Z,88.30
2023-11-09T17:03:10.839Z,87.90
2023-11-09T17:05:38.056Z,89.00
2023-11-09T17:08:06.019Z,88.50
2023-11-09T17:10:33.168Z,88.70
2023-11-09T17:13:00.237Z,89.10
2023-11-09T17:15:27.264Z,89.50
2023-11-09T17:17:55.025Z,89.30
2023-11-09T17:20:22.080Z,89.50
2023-11-09T17:22:49.514Z,89.70
2023-11-09T17:25:16.610Z,90.10
2023-11-09T17:27:44.532Z,90.70
2023-11-09T17:30:12.737Z,91.20
2023-11-09T17:32:41.412Z,91.50
2023-11-09T17:35:09.408Z,91.90
2023-11-09T17:37:37.075Z,92.00
2023-11-09T17:40:05.827Z,92.00
2023-11-09T17:42:32.946Z,92.20
2023-11-09T17:45:00.020Z,92.20
2023-11-09T17:47:31.687Z,92.20
2023-11-09T17:49:59.825Z,92.20
2023-11-09T17:52:27.353Z,92.30
2023-11-09T17:54:54.308Z,92.20
2023-11-09T17:57:21.269Z,92.30
2023-11-09T17:59:48.796Z,92.40
2023-11-09T18:02:18.351Z,92.40
2023-11-09T18:04:45.950Z,92.40
2023-11-09T18:07:13.074Z,92.50
2023-11-09T18:09:40.720Z,92.30
2023-11-09T18:12:18.663Z,92.30
2023-11-09T18:14:45.967Z,92.40
2023-11-09T18:17:14.269Z,92.70
2023-11-09T18:19:41.562Z,92.60
2023-11-09T18:22:08.664Z,92.50
2023-11-09T18:24:35.900Z,92.50
2023-11-09T18:27:03.090Z,92.60
2023-11-09T18:29:30.197Z,92.70
2023-11-09T18:31:58.966Z,92.70
2023-11-09T18:34:28.276Z,92.70
2023-11-09T18:36:56.977Z,92.70
2023-11-09T18:39:25.597Z,92.60
2023-11-09T18:41:52.746Z,92.60
2023-11-09T18:44:21.725Z,92.60
2023-11-09T18:46:49.287Z,92.50
2023-11-09T18:51:46.787Z,92.30
2023-11-09T18:54:14.009Z,92.50
2023-11-09T18:56:41.006Z,92.20
2023-11-09T18:59:08.275Z,92.30
2023-11-09T19:01:36.458Z,92.30
2023-11-09T19:06:34.461Z,92.30
2023-11-09T19:09:01.894Z,92.40
2023-11-09T19:11:30.751Z,92.40
2023-11-09T19:13:58.622Z,92.30
2023-11-09T19:16:25.837Z,92.20
2023-11-09T19:18:53.238Z,92.50
2023-11-09T19:23:50.355Z,91.90
2023-11-09T19:26:17.367Z,91.80
2023-11-09T19:28:44.824Z,91.60
2023-11-09T19:31:11.966Z,91.50
2023-11-09T19:33:39.879Z,91.60
2023-11-09T19:36:07.557Z,91.40
2023-11-09T19:38:35.121Z,91.10
2023-11-09T19:41:05.437Z,90.70
2023-11-09T19:43:32.431Z,90.20
2023-11-09T19:45:59.614Z,89.20
2023-11-09T19:48:27.887Z,87.90
2023-11-09T19:50:55.594Z,86.10
2023-11-09T19:53:22.790Z,84.40
2023-11-09T19:55:49.837Z,83.20
2023-11-09T19:58:16.901Z,82.30
2023-11-09T20:00:45.480Z,80.80
2023-11-09T20:03:13.097Z,78.90
2023-11-09T20:05:41.847Z,77.30
2023-11-09T20:08:09.052Z,76.60
2023-11-09T20:10:36.271Z,75.90
2023-11-09T20:13:04.979Z,75.20
2023-11-09T20:15:32.744Z,74.20
2023-11-09T20:18:02.945Z,73.70
2023-11-09T20:20:31.540Z,73.00
2023-11-09T20:22:59.690Z,72.50
2023-11-09T20:25:27.294Z,72.30
2023-11-09T20:27:55.969Z,72.00
2023-11-09T20:30:23.630Z,70.90
2023-11-09T20:32:51.297Z,70.70
2023-11-09T20:35:18.718Z,69.50
2023-11-09T20:37:46.058Z,68.70
2023-11-09T20:40:17.026Z,68.60
2023-11-09T20:42:44.978Z,68.80
2023-11-09T20:45:12.463Z,68.80
2023-11-09T20:47:40.916Z,68.20
2023-11-09T20:50:14.258Z,67.90
2023-11-09T20:52:42.476Z,67.60
2023-11-09T20:55:14.377Z,67.70
2023-11-09T20:57:41.907Z,68.00
2023-11-09T21:00:10.475Z,68.20
2023-11-09T21:02:38.015Z,68.00
2023-11-09T21:05:06.777Z,67.50
2023-11-09T21:07:34.093Z,66.50
2023-11-09T21:10:01.811Z,66.70
2023-11-09T21:12:29.326Z,66.40
2023-11-09T21:14:56.724Z,65.90
2023-11-09T21:17:25.708Z,65.90
2023-11-09T21:19:53.064Z,65.80
2023-11-09T21:22:20.446Z,65.80
2023-11-09T21:24:47.443Z,66.00
2023-11-09T21:27:15.786Z,66.00
2023-11-09T21:29:42.847Z,65.90
2023-11-09T21:32:10.234Z,66.20
2023-11-09T21:34:41.741Z,66.70
2023-11-09T21:37:09.277Z,66.90
2023-11-09T21:39:38.646Z,66.90
2023-11-09T21:42:09.844Z,67.70
2023-11-09T21:44:41.390Z,68.40
2023-11-09T21:47:09.591Z,68.70
2023-11-09T21:49:39.160Z,68.60
2023-11-09T21:52:06.931Z,68.60
2023-11-09T21:54:34.641Z,67.70
2023-11-09T21:57:02.063Z,67.20
2023-11-09T21:59:30.139Z,66.80
2023-11-09T22:01:57.307Z,66.70
2023-11-09T22:04:25.251Z,66.60
2023-11-09T22:06:55.147Z,66.60
2023-11-09T22:09:22.819Z,66.80
2023-11-09T22:11:51.327Z,66.60
2023-11-09T22:14:19.033Z,66.40
2023-11-09T22:16:46.189Z,66.40
2023-11-09T22:19:13.373Z,66.10
2023-11-09T22:21:40.702Z,66.00
2023-11-09T22:24:11.447Z,65.80
2023-11-09T22:26:40.214Z,65.60
2023-11-09T22:29:07.893Z,65.10
2023-11-09T22:31:35.090Z,64.70
2023-11-09T22:34:02.384Z,64.00
2023-11-09T22:36:29.570Z,64.00
2023-11-09T22:38:56.519Z,64.70
2023-11-09T22:41:23.542Z,63.70
2023-11-09T22:43:50.564Z,63.50
2023-11-09T22:46:17.547Z,63.50
2023-11-09T22:48:44.770Z,63.30
2023-11-09T22:51:11.814Z,63.20
2023-11-09T22:53:39.329Z,63.20
2023-11-09T22:56:07.562Z,64.10
2023-11-09T22:58:34.972Z,63.30
2023-11-09T23:01:05.280Z,63.50
2023-11-09T23:03:33.928Z,63.60
2023-11-09T23:06:01.712Z,63.80
2023-11-09T23:08:28.839Z,63.90
2023-11-09T23:10:55.785Z,64.00
2023-11-09T23:13:22.911Z,64.20
2023-11-09T23:15:50.161Z,64.30
2023-11-09T23:18:17.829Z,64.50
2023-11-09T23:20:45.485Z,64.60
2023-11-09T23:23:13.215Z,64.80
2023-11-09T23:25:40.481Z,64.90
2023-11-09T23:28:07.714Z,65.00
2023-11-09T23:30:34.956Z,65.00
2023-11-09T23:33:02.239Z,65.20
2023-11-09T23:35:30.241Z,65.20
2023-11-09T23:37:57.708Z,65.20
2023-11-09T23:40:25.103Z,65.40
2023-11-09T23:42:52.254Z,65.50
2023-11-09T23:45:19.691Z,65.60
2023-11-09T23:47:47.155Z,65.70
2023-11-09T23:50:14.378Z,65.70
2023-11-09T23:52:41.884Z,65.80
2023-11-09T23:55:09.711Z,66.00
2023-11-09T23:57:37.488Z,67.20
